createdAt,value
2019-05-13T00:02:07.301Z,98039.25
2019-05-13T00:04:34.229Z,98036.80
2019-05-13T00:07:04.372Z,98035.96
2019-05-13T00:09:30.384Z,98034.34
2019-05-13T00:11:57.187Z,98027.83
2019-05-13T00:14:24.086Z,98028.64
2019-05-13T00:16:53.482Z,98025.13
2019-05-13T00:19:19.651Z,98021.34
2019-05-13T00:21:47.171Z,98023.25
2019-05-13T00:24:14.059Z,98022.73
2019-05-13T00:26:41.259Z,98024.34
2019-05-13T00:29:08.047Z,98031.38
2019-05-13T00:31:35.136Z,98026.80
2019-05-13T00:34:03.666Z,98033.84
2019-05-13T00:36:30.908Z,98036.29
2019-05-13T00:38:57.983Z,98033.09
2019-05-13T00:41:25.726Z,98041.23
2019-05-13T00:43:53.259Z,98039.61
2019-05-13T00:46:20.649Z,98046.64
2019-05-13T00:48:47.639Z,98042.58
2019-05-13T00:51:14.459Z,98041.23
2019-05-13T00:53:44.056Z,98045.03
2019-05-13T00:56:10.802Z,98038.25
2019-05-13T00:58:38.246Z,98031.73
2019-05-13T01:01:05.310Z,98027.67
2019-05-13T01:03:33.842Z,98023.61
2019-05-13T01:06:01.045Z,98027.67
2019-05-13T01:08:27.995Z,98026.87
2019-05-13T01:10:55.101Z,98020.09
2019-05-13T01:13:23.768Z,98026.87
2019-05-13T01:15:51.486Z,98031.16
2019-05-13T01:18:18.778Z,98043.06
2019-05-13T01:20:46.014Z,98049.03
2019-05-13T01:23:14.116Z,98045.33
2019-05-13T01:25:44.242Z,98046.97
2019-05-13T01:28:13.462Z,98045.36
2019-05-13T01:30:43.643Z,98054.30
2019-05-13T01:33:11.483Z,98046.97
2019-05-13T01:35:38.588Z,98046.97
2019-05-13T01:38:07.027Z,98039.94
2019-05-13T01:40:34.927Z,98044.00
2019-05-13T01:43:03.537Z,98046.45
2019-05-13T01:45:33.774Z,98046.20
2019-05-13T01:48:01.440Z,98046.78
2019-05-13T01:50:28.693Z,98045.71
2019-05-13T01:52:56.198Z,98048.16
2019-05-13T01:55:24.472Z,98047.65
2019-05-13T01:57:53.323Z,98046.84
2019-05-13T02:00:20.828Z,98050.94
2019-05-13T02:02:48.230Z,98050.70
2019-05-13T02:05:15.736Z,98056.97
2019-05-13T02:07:56.520Z,98054.29
2019-05-13T02:10:14.556Z,98058.90
2019-05-13T02:12:44.656Z,98055.70
2019-05-13T02:15:14.316Z,98059.77
2019-05-13T02:17:44.585Z,98057.61
2019-05-13T02:20:14.781Z,98055.99
2019-05-13T02:22:43.791Z,98058.45
2019-05-13T02:25:13.762Z,98056.28
2019-05-13T02:27:43.659Z,98057.09
2019-05-13T02:30:11.014Z,98062.77
2019-05-13T02:32:38.166Z,98064.92
2019-05-13T02:35:05.660Z,98074.41
2019-05-13T02:37:34.250Z,98080.37
2019-05-13T02:40:03.437Z,98079.31
2019-05-13T02:42:32.784Z,98081.19
2019-05-13T02:45:03.777Z,98084.45
2019-05-13T02:47:32.850Z,98093.64
2019-05-13T02:50:01.815Z,98085.52
2019-05-13T02:52:27.817Z,98083.89
2019-05-13T02:54:55.141Z,98083.38
2019-05-13T02:57:23.384Z,98080.67
2019-05-13T02:59:52.631Z,98081.22
2019-05-13T03:02:22.481Z,98084.99
2019-05-13T03:04:52.087Z,98081.45
2019-05-13T03:07:18.229Z,98088.71
2019-05-13T03:09:45.609Z,98090.06
2019-05-13T03:12:13.309Z,98089.58
2019-05-13T03:14:47.502Z,98092.52
2019-05-13T03:17:28.913Z,98104.77
2019-05-13T03:19:56.008Z,98105.05
2019-05-13T03:22:23.123Z,98109.64
2019-05-13T03:24:52.308Z,98102.00
2019-05-13T03:27:20.522Z,98104.97
2019-05-13T03:29:48.364Z,98106.03
2019-05-13T03:32:17.609Z,98111.19
2019-05-13T03:34:46.107Z,98108.77
2019-05-13T03:37:15.656Z,98113.64
2019-05-13T03:39:43.582Z,98111.48
2019-05-13T03:42:12.389Z,98116.09
2019-05-13T03:44:42.787Z,98122.32
2019-05-13T03:47:12.750Z,98121.28
2019-05-13T03:49:42.517Z,98115.34
2019-05-13T03:52:13.465Z,98127.02
2019-05-13T03:54:43.356Z,98130.30
2019-05-13T03:57:12.593Z,98128.17
2019-05-13T03:59:39.174Z,98131.98
2019-05-13T04:02:06.399Z,98128.20
2019-05-13T04:04:33.399Z,98132.52
2019-05-13T04:07:02.684Z,98132.81
2019-05-13T04:09:35.724Z,98133.06
2019-05-13T04:12:03.217Z,98134.42
2019-05-13T04:14:29.342Z,98131.45
2019-05-13T04:16:57.407Z,98130.10
2019-05-13T04:19:24.619Z,98130.39
2019-05-13T04:21:52.835Z,98127.97
2019-05-13T04:24:22.899Z,98131.77
2019-05-13T04:26:49.425Z,98133.13
2019-05-13T04:29:16.625Z,98138.31
2019-05-13T04:31:43.540Z,98144.82
2019-05-13T04:34:12.392Z,98142.11
2019-05-13T04:36:42.782Z,98142.11
2019-05-13T04:39:08.778Z,98140.76
2019-05-13T04:41:37.170Z,98141.85
2019-05-13T04:44:04.438Z,98141.59
2019-05-13T04:46:32.725Z,98147.01
2019-05-13T04:49:02.238Z,98154.61
2019-05-13T04:51:32.845Z,98154.35
2019-05-13T04:54:02.568Z,98148.45
2019-05-13T04:56:28.600Z,98154.14
2019-05-13T04:58:55.895Z,98157.41
2019-05-13T05:01:59.319Z,98156.87
2019-05-13T05:04:53.515Z,98155.78
2019-05-13T05:07:42.963Z,98157.70
2019-05-13T05:11:07.995Z,98153.98
2019-05-13T05:13:53.097Z,98152.91
2019-05-13T05:16:58.372Z,98155.89
2019-05-13T05:20:03.200Z,98159.14
2019-05-13T05:23:11.262Z,98159.41
2019-05-13T05:26:01.167Z,98151.30
2019-05-13T05:29:02.175Z,98149.95
2019-05-13T05:32:01.960Z,98162.68
2019-05-13T05:34:53.696Z,98161.92
2019-05-13T05:37:47.838Z,98174.66
2019-05-13T05:40:31.086Z,98174.94
2019-05-13T05:42:48.116Z,98174.94
2019-05-13T05:45:15.813Z,98178.19
2019-05-13T05:47:44.046Z,98169.23
2019-05-13T05:50:12.207Z,98170.05
2019-05-13T05:52:42.155Z,98173.84
2019-05-13T05:55:11.293Z,98182.52
2019-05-13T05:57:41.948Z,98182.78
2019-05-13T06:00:11.505Z,98186.30
2019-05-13T06:02:42.736Z,98185.75
2019-05-13T06:05:12.514Z,98193.56
2019-05-13T06:07:42.166Z,98192.20
2019-05-13T06:10:11.483Z,98197.08
2019-05-13T06:12:42.170Z,98201.66
2019-05-13T06:15:12.333Z,98200.55
2019-05-13T06:17:41.309Z,98203.75
2019-05-13T06:20:09.203Z,98198.88
2019-05-13T06:22:36.489Z,98196.17
2019-05-13T06:25:05.563Z,98202.17
2019-05-13T06:27:32.379Z,98208.13
2019-05-13T06:30:02.332Z,98205.91
2019-05-13T06:32:31.399Z,98205.63
2019-05-13T06:35:02.154Z,98215.38
2019-05-13T06:37:28.255Z,98217.27
2019-05-13T06:39:55.291Z,98217.25
2019-05-13T06:42:22.538Z,98220.77
2019-05-13T06:44:51.418Z,98226.73
2019-05-13T06:47:18.606Z,98222.67
2019-05-13T06:49:45.856Z,98223.22
2019-05-13T06:52:12.893Z,98226.19
2019-05-13T06:54:41.832Z,98219.91
2019-05-13T06:57:13.148Z,98227.19
2019-05-13T06:59:38.450Z,98227.19
2019-05-13T07:02:05.669Z,98228.54
2019-05-13T07:04:33.000Z,98233.95
2019-05-13T07:07:09.825Z,98230.70
2019-05-13T07:09:32.013Z,98237.19
2019-05-13T07:11:58.513Z,98230.66
2019-05-13T07:14:25.777Z,98238.21
2019-05-13T07:16:52.863Z,98234.94
2019-05-13T07:19:19.867Z,98238.92
2019-05-13T07:21:46.967Z,98240.25
2019-05-13T07:24:14.082Z,98248.87
2019-05-13T07:26:41.909Z,98244.52
2019-05-13T07:29:12.440Z,98248.59
2019-05-13T07:31:38.195Z,98249.66
2019-05-13T07:34:05.766Z,98249.40
2019-05-13T07:36:33.034Z,98252.37
2019-05-13T07:39:01.814Z,98253.73
2019-05-13T07:41:36.526Z,98259.67
2019-05-13T07:43:59.420Z,98265.90
2019-05-13T07:46:26.577Z,98260.48
2019-05-13T07:48:53.647Z,98258.52
2019-05-13T07:51:22.217Z,98259.59
2019-05-13T07:53:51.616Z,98262.02
2019-05-13T07:56:18.323Z,98263.35
2019-05-13T07:58:45.783Z,98268.23
2019-05-13T08:01:12.895Z,98271.22
2019-05-13T08:03:42.190Z,98264.99
2019-05-13T08:06:10.864Z,98278.80
2019-05-13T08:08:41.489Z,98277.94
2019-05-13T08:11:07.828Z,98284.95
2019-05-13T08:13:35.155Z,98287.09
2019-05-13T08:16:02.338Z,98289.00
2019-05-13T08:18:31.874Z,98294.42
2019-05-13T08:20:58.729Z,98293.90
2019-05-13T08:23:26.904Z,98309.36
2019-05-13T08:25:54.195Z,98303.13
2019-05-13T08:28:22.605Z,98311.78
2019-05-13T08:30:51.824Z,98309.59
2019-05-13T08:33:19.395Z,98313.32
2019-05-13T08:35:46.963Z,98312.41
2019-05-13T08:38:15.443Z,98313.75
2019-05-13T08:40:42.762Z,98313.95
2019-05-13T08:43:12.092Z,98315.75
2019-05-13T08:45:42.043Z,98317.32
2019-05-13T08:48:12.449Z,98321.05
2019-05-13T08:50:41.634Z,98321.83
2019-05-13T08:53:08.115Z,98320.19
2019-05-13T08:55:35.151Z,98326.08
2019-05-13T08:58:02.326Z,98323.63
2019-05-13T09:00:47.393Z,98323.34
2019-05-13T09:03:16.197Z,98331.22
2019-05-13T09:05:43.697Z,98321.45
2019-05-13T09:08:11.789Z,98320.66
2019-05-13T09:10:41.213Z,98321.45
2019-05-13T09:13:07.911Z,98320.91
2019-05-13T09:15:35.134Z,98322.81
2019-05-13T09:18:02.557Z,98331.77
2019-05-13T09:20:32.190Z,98330.95
2019-05-13T09:22:59.135Z,98327.45
2019-05-13T09:25:26.250Z,98337.84
2019-05-13T09:27:53.306Z,98330.54
2019-05-13T09:30:22.296Z,98340.03
2019-05-13T09:32:51.410Z,98338.67
2019-05-13T09:35:18.446Z,98336.25
2019-05-13T09:37:45.602Z,98336.22
2019-05-13T09:40:12.899Z,98337.84
2019-05-13T09:42:49.164Z,98338.36
2019-05-13T09:45:12.093Z,98344.55
2019-05-13T09:47:38.632Z,98344.25
2019-05-13T09:50:06.535Z,98347.78
2019-05-13T09:52:33.670Z,98343.42
2019-05-13T09:55:03.037Z,98338.28
2019-05-13T09:57:32.195Z,98336.66
2019-05-13T10:00:01.787Z,98335.67
2019-05-13T10:02:28.802Z,98336.59
2019-05-13T10:04:56.315Z,98343.63
2019-05-13T10:07:23.359Z,98340.03
2019-05-13T10:09:52.055Z,98338.28
2019-05-13T10:12:23.810Z,98340.63
2019-05-13T10:14:48.988Z,98335.44
2019-05-13T10:17:16.870Z,98341.30
2019-05-13T10:19:43.994Z,98330.30
2019-05-13T10:22:12.186Z,98332.09
2019-05-13T10:24:42.229Z,98332.69
2019-05-13T10:27:12.234Z,98327.00
2019-05-13T10:29:42.179Z,98330.59
2019-05-13T10:32:08.588Z,98330.94
2019-05-13T10:34:35.919Z,98330.25
2019-05-13T10:37:03.130Z,98323.31
2019-05-13T10:39:30.794Z,98319.91
2019-05-13T10:41:58.003Z,98314.25
2019-05-13T10:44:25.267Z,98300.31
2019-05-13T10:46:52.437Z,98300.31
2019-05-13T10:49:22.067Z,98320.45
2019-05-13T10:51:49.217Z,98320.89
2019-05-13T10:54:16.222Z,98322.66
2019-05-13T10:56:44.856Z,98320.54
2019-05-13T10:59:12.787Z,98299.91
2019-05-13T11:01:42.690Z,98299.91
2019-05-13T11:04:13.297Z,98304.75
2019-05-13T11:06:37.999Z,98327.23
2019-05-13T11:09:08.130Z,98307.93
2019-05-13T11:11:35.345Z,98329.97
2019-05-13T11:14:10.817Z,98325.34
2019-05-13T11:16:32.443Z,98325.34
2019-05-13T11:19:02.524Z,98323.02
2019-05-13T11:21:28.944Z,98300.57
2019-05-13T11:23:56.039Z,98322.77
2019-05-13T11:26:23.580Z,98316.37
2019-05-13T11:28:52.107Z,98315.27
2019-05-13T11:31:22.452Z,98303.88
2019-05-13T11:33:51.794Z,98310.07
2019-05-13T11:36:19.222Z,98310.07
2019-05-13T11:38:46.987Z,98303.83
2019-05-13T11:41:14.148Z,98298.19
2019-05-13T11:43:41.633Z,98298.02
2019-05-13T11:46:08.839Z,98300.27
2019-05-13T11:48:36.144Z,98296.45
2019-05-13T11:51:04.411Z,98296.03
2019-05-13T11:53:34.544Z,98302.69
2019-05-13T11:56:03.584Z,98298.91
2019-05-13T11:58:30.109Z,98299.05
2019-05-13T12:01:02.665Z,98296.94
2019-05-13T12:03:32.152Z,98299.41
2019-05-13T12:05:58.639Z,98296.00
2019-05-13T12:08:26.088Z,98300.79
2019-05-13T12:10:54.644Z,98295.19
2019-05-13T12:13:23.213Z,98297.70
2019-05-13T12:15:53.887Z,98300.56
2019-05-13T12:18:23.402Z,98299.76
2019-05-13T12:20:49.329Z,98291.81
2019-05-13T12:23:16.740Z,98295.77
2019-05-13T12:25:44.149Z,98294.20
2019-05-13T12:28:11.590Z,98294.20
2019-05-13T12:30:41.805Z,98285.66
2019-05-13T12:33:08.772Z,98285.56
2019-05-13T12:35:35.948Z,98263.98
2019-05-13T12:38:03.375Z,98280.06
2019-05-13T12:40:33.743Z,98280.06
2019-05-13T12:43:01.956Z,98280.44
2019-05-13T12:45:29.664Z,98262.84
2019-05-13T12:47:56.792Z,98259.58
2019-05-13T12:50:24.887Z,98259.58
2019-05-13T12:52:52.239Z,98279.47
2019-05-13T12:55:21.748Z,98273.66
2019-05-13T12:57:48.838Z,98271.95
2019-05-13T13:00:17.384Z,98267.28
2019-05-13T13:02:50.369Z,98267.28
2019-05-13T13:05:19.924Z,98267.20
2019-05-13T13:07:43.225Z,98261.47
2019-05-13T13:10:14.725Z,98269.02
2019-05-13T13:12:42.224Z,98263.88
2019-05-13T13:15:33.072Z,98264.48
2019-05-13T13:17:38.497Z,98265.55
2019-05-13T13:20:09.591Z,98262.83
2019-05-13T13:22:36.016Z,98268.01
2019-05-13T13:25:06.046Z,98263.37
2019-05-13T13:28:00.030Z,98258.62
2019-05-13T13:30:08.463Z,98263.97
2019-05-13T13:32:34.737Z,98258.53
2019-05-13T13:35:03.708Z,98253.94
2019-05-13T13:37:34.993Z,98258.32
2019-05-13T13:40:03.432Z,98257.59
2019-05-13T13:42:33.031Z,98255.42
2019-05-13T13:44:59.388Z,98258.06
2019-05-13T13:47:26.907Z,98253.09
2019-05-13T13:49:54.263Z,98252.20
2019-05-13T13:52:22.817Z,98246.54
2019-05-13T13:54:58.950Z,98255.43
2019-05-13T13:57:19.115Z,98252.16
2019-05-13T14:00:16.238Z,98244.97
2019-05-13T14:02:15.859Z,98248.37
2019-05-13T14:04:43.350Z,98249.59
2019-05-13T14:07:27.750Z,98242.84
2019-05-13T14:09:40.221Z,98245.27
2019-05-13T14:12:07.637Z,98245.44
2019-05-13T14:14:34.706Z,98242.22
2019-05-13T14:17:18.285Z,98239.02
2019-05-13T14:19:45.391Z,98232.77
2019-05-13T14:22:12.823Z,98232.52
2019-05-13T14:24:42.316Z,98231.45
2019-05-13T14:27:08.871Z,98234.00
2019-05-13T14:29:40.658Z,98231.03
2019-05-13T14:32:05.079Z,98231.88
2019-05-13T14:34:32.310Z,98232.48
2019-05-13T14:37:01.144Z,98226.56
2019-05-13T14:39:31.344Z,98222.48
2019-05-13T14:41:58.470Z,98223.47
2019-05-13T14:44:25.525Z,98224.78
2019-05-13T14:46:52.575Z,98218.46
2019-05-13T14:49:22.269Z,98220.88
2019-05-13T14:51:48.706Z,98223.86
2019-05-13T14:54:16.035Z,98228.19
2019-05-13T14:56:43.250Z,98226.53
2019-05-13T14:59:11.654Z,98232.02
2019-05-13T15:01:41.187Z,98237.20
2019-05-13T15:04:08.393Z,98234.98
2019-05-13T15:06:35.407Z,98234.69
2019-05-13T15:09:05.158Z,98233.58
2019-05-13T15:11:32.528Z,98231.67
2019-05-13T15:14:02.471Z,98233.03
2019-05-13T15:16:31.217Z,98237.95
2019-05-13T15:18:58.379Z,98242.64
2019-05-13T15:21:25.733Z,98231.58
2019-05-13T15:23:52.731Z,98242.25
2019-05-13T15:26:22.043Z,98230.98
2019-05-13T15:28:48.838Z,98239.30
2019-05-13T15:31:18.122Z,98238.70
2019-05-13T15:33:45.136Z,98228.05
2019-05-13T15:36:12.189Z,98231.73
2019-05-13T15:38:41.242Z,98237.76
2019-05-13T15:41:08.029Z,98227.73
2019-05-13T15:43:35.050Z,98231.00
2019-05-13T15:46:02.992Z,98237.06
2019-05-13T15:48:31.523Z,98228.44
2019-05-13T15:51:01.507Z,98233.13
2019-05-13T15:53:28.174Z,98240.22
2019-05-13T15:55:55.101Z,98237.55
2019-05-13T15:58:38.053Z,98237.28
2019-05-13T16:00:52.321Z,98244.44
2019-05-13T16:03:19.698Z,98243.73
2019-05-13T16:05:46.881Z,98245.69
2019-05-13T16:08:13.963Z,98251.33
2019-05-13T16:10:41.923Z,98256.63
2019-05-13T16:13:11.663Z,98256.28
2019-05-13T16:15:38.298Z,98259.73
2019-05-13T16:18:05.471Z,98266.64
2019-05-13T16:20:32.999Z,98270.03
2019-05-13T16:23:02.434Z,98265.55
2019-05-13T16:25:29.224Z,98265.94
2019-05-13T16:27:56.363Z,98266.05
2019-05-13T16:30:23.521Z,98274.53
2019-05-13T16:32:52.152Z,98273.28
2019-05-13T16:35:21.518Z,98282.06
2019-05-13T16:37:48.597Z,98282.98
2019-05-13T16:40:15.839Z,98292.02
2019-05-13T16:42:43.501Z,98285.32
2019-05-13T16:45:12.477Z,98288.94
2019-05-13T16:47:55.804Z,98300.89
2019-05-13T16:50:11.466Z,98296.09
2019-05-13T16:52:38.787Z,98305.38
2019-05-13T16:55:06.592Z,98298.95
2019-05-13T16:57:33.601Z,98304.43
2019-05-13T17:00:02.491Z,98307.73
2019-05-13T17:02:29.626Z,98306.67
2019-05-13T17:04:56.527Z,98308.63
2019-05-13T17:07:23.719Z,98313.52
2019-05-13T17:09:52.208Z,98314.08
2019-05-13T17:12:21.156Z,98316.55
2019-05-13T17:14:48.387Z,98320.08
2019-05-13T17:17:15.553Z,98322.26
2019-05-13T17:19:42.452Z,98324.44
2019-05-13T17:22:09.713Z,98325.53
2019-05-13T17:24:36.611Z,98322.61
2019-05-13T17:27:03.615Z,98328.31
2019-05-13T17:29:31.688Z,98334.86
2019-05-13T17:31:59.056Z,98329.50
2019-05-13T17:34:26.229Z,98334.91
2019-05-13T17:36:53.367Z,98340.33
2019-05-13T17:39:21.345Z,98341.42
2019-05-13T17:41:48.313Z,98343.86
2019-05-13T17:44:15.307Z,98339.80
2019-05-13T17:46:42.160Z,98344.95
2019-05-13T17:49:11.575Z,98339.53
2019-05-13T17:51:38.151Z,98342.80
2019-05-13T17:54:05.446Z,98340.67
2019-05-13T17:56:32.447Z,98345.55
2019-05-13T17:58:59.525Z,98352.05
2019-05-13T18:01:26.579Z,98343.94
2019-05-13T18:03:53.568Z,98333.38
2019-05-13T18:06:21.048Z,98338.26
2019-05-13T18:08:48.336Z,98338.53
2019-05-13T18:11:15.705Z,98339.66
2019-05-13T18:13:43.710Z,98335.02
2019-05-13T18:16:12.553Z,98331.27
2019-05-13T18:18:46.756Z,98331.81
2019-05-13T18:21:08.915Z,98332.91
2019-05-13T18:23:35.866Z,98335.08
2019-05-13T18:26:03.492Z,98336.74
2019-05-13T18:28:31.594Z,98335.93
2019-05-13T18:30:58.922Z,98341.09
2019-05-13T18:33:26.127Z,98345.46
2019-05-13T18:35:53.148Z,98350.34
2019-05-13T18:38:21.111Z,98354.94
2019-05-13T18:40:48.341Z,98355.70
2019-05-13T18:43:15.772Z,98351.36
2019-05-13T18:45:42.677Z,98352.39
2019-05-13T18:48:12.082Z,98350.48
2019-05-13T18:50:38.594Z,98346.96
2019-05-13T18:53:05.678Z,98351.56
2019-05-13T18:55:32.612Z,98345.62
2019-05-13T18:58:01.056Z,98347.78
2019-05-13T19:00:28.387Z,98350.75
2019-05-13T19:02:55.603Z,98348.87
2019-05-13T19:05:22.610Z,98346.70
2019-05-13T19:07:51.262Z,98344.01
2019-05-13T19:10:18.728Z,98340.80
2019-05-13T19:12:46.083Z,98342.97
2019-05-13T19:15:15.299Z,98339.73
2019-05-13T19:17:42.854Z,98335.14
2019-05-13T19:20:11.626Z,98332.44
2019-05-13T19:22:41.285Z,98334.91
2019-05-13T19:25:08.856Z,98340.31
2019-05-13T19:27:35.817Z,98331.94
2019-05-13T19:30:05.039Z,98326.83
2019-05-13T19:32:32.481Z,98329.00
2019-05-13T19:35:02.404Z,98326.84
2019-05-13T19:37:28.751Z,98326.30
2019-05-13T19:39:55.965Z,98323.59
2019-05-13T19:42:24.012Z,98325.49
2019-05-13T19:44:51.256Z,98323.92
2019-05-13T19:47:19.161Z,98327.48
2019-05-13T19:49:46.841Z,98325.05
2019-05-13T19:52:21.374Z,98325.91
2019-05-13T19:54:48.667Z,98317.84
2019-05-13T19:57:21.115Z,98317.08
2019-05-13T19:59:47.556Z,98310.64
2019-05-13T20:02:14.668Z,98312.31
2019-05-13T20:04:42.000Z,98303.39
2019-05-13T20:07:11.527Z,98297.99
2019-05-13T20:09:38.760Z,98302.85
2019-05-13T20:12:05.971Z,98304.47
2019-05-13T20:14:33.093Z,98302.04
2019-05-13T20:17:01.586Z,98302.31
2019-05-13T20:19:42.735Z,98290.69
2019-05-13T20:21:58.065Z,98282.31
2019-05-13T20:24:25.248Z,98277.98
2019-05-13T20:26:53.995Z,98277.18
2019-05-13T20:29:21.582Z,98283.70
2019-05-13T20:31:48.577Z,98274.80
2019-05-13T20:34:15.876Z,98280.50
2019-05-13T20:36:43.299Z,98281.59
2019-05-13T20:39:11.589Z,98280.78
2019-05-13T20:41:41.255Z,98270.02
2019-05-13T20:44:08.551Z,98264.61
2019-05-13T20:46:35.816Z,98264.61
2019-05-13T20:49:03.298Z,98263.53
2019-05-13T20:51:31.305Z,98270.05
2019-05-13T20:53:58.512Z,98271.64
2019-05-13T20:56:25.677Z,98264.06
2019-05-13T20:58:52.940Z,98265.11
2019-05-13T21:01:20.189Z,98255.92
2019-05-13T21:03:47.688Z,98259.98
2019-05-13T21:06:15.335Z,98258.93
2019-05-13T21:08:42.227Z,98249.17
2019-05-13T21:11:11.366Z,98252.68
2019-05-13T21:13:38.211Z,98253.48
2019-05-13T21:16:05.214Z,98247.81
2019-05-13T21:18:32.612Z,98244.84
2019-05-13T21:21:01.017Z,98247.81
2019-05-13T21:23:28.003Z,98246.20
2019-05-13T21:25:55.398Z,98248.13
2019-05-13T21:28:22.296Z,98251.95
2019-05-13T21:30:51.281Z,98243.08
2019-05-13T21:33:18.491Z,98242.00
2019-05-13T21:35:46.371Z,98243.35
2019-05-13T21:38:13.481Z,98244.70
2019-05-13T21:40:41.529Z,98243.39
2019-05-13T21:43:08.796Z,98242.34
2019-05-13T21:45:35.804Z,98242.34
2019-05-13T21:48:03.239Z,98239.14
2019-05-13T21:50:36.360Z,98239.17
2019-05-13T21:52:59.288Z,98234.31
2019-05-13T21:55:26.782Z,98229.98
2019-05-13T21:57:53.718Z,98230.02
2019-05-13T22:00:25.724Z,98224.08
2019-05-13T22:02:52.653Z,98216.79
2019-05-13T22:05:22.057Z,98218.41
2019-05-13T22:07:48.809Z,98213.83
2019-05-13T22:10:16.311Z,98213.58
2019-05-13T22:12:43.854Z,98213.58
2019-05-13T22:15:11.393Z,98215.74
2019-05-13T22:17:38.570Z,98214.39
2019-05-13T22:20:06.599Z,98212.77
2019-05-13T22:22:33.462Z,98210.08
2019-05-13T22:25:01.985Z,98207.67
2019-05-13T22:27:29.193Z,98202.01
2019-05-13T22:29:57.550Z,98201.73
2019-05-13T22:32:25.059Z,98203.12
2019-05-13T22:34:52.851Z,98193.13
2019-05-13T22:37:20.212Z,98189.66
2019-05-13T22:39:47.207Z,98189.66
2019-05-13T22:42:14.303Z,98184.80
2019-05-13T22:44:41.964Z,98184.80
2019-05-13T22:47:13.057Z,98178.31
2019-05-13T22:49:37.635Z,98178.58
2019-05-13T22:52:04.962Z,98174.53
2019-05-13T22:54:31.979Z,98168.87
2019-05-13T22:56:59.395Z,98154.88
2019-05-13T22:59:26.755Z,98151.09
2019-05-13T23:01:59.792Z,98161.08
2019-05-13T23:04:26.633Z,98158.64
2019-05-13T23:06:53.616Z,98153.28
2019-05-13T23:09:21.537Z,98154.63
2019-05-13T23:11:50.997Z,98159.75
2019-05-13T23:14:17.915Z,98158.13
2019-05-13T23:16:45.038Z,98148.96
2019-05-13T23:19:12.406Z,98150.31
2019-05-13T23:21:41.634Z,98146.27
2019-05-13T23:24:08.633Z,98143.30
2019-05-13T23:26:35.798Z,98147.91
2019-05-13T23:29:03.112Z,98147.37
2019-05-13T23:31:29.902Z,98142.78
2019-05-13T23:33:56.743Z,98140.11
2019-05-13T23:36:31.599Z,98142.54
2019-05-13T23:39:00.940Z,98129.33
2019-05-13T23:41:28.558Z,98130.94
2019-05-13T23:43:55.388Z,98126.63
2019-05-13T23:46:22.485Z,98121.23
2019-05-13T23:48:51.842Z,98121.50
2019-05-13T23:51:18.666Z,98118.52
2019-05-13T23:53:45.603Z,98117.43
2019-05-13T23:56:12.796Z,98115.81
2019-05-13T23:58:41.366Z,98112.58
